Disney Magic — C6PT7 — position and weather

sailwx.info

Track history (hours):
 
Tides and Currents Weather Stations Pressure Air Temp Water Temp Dewpoint Dewpoint Depression Visibility Wind Speed Wind Dir Waves Ship Positions

Disney Magic

Last reported at 2015-May-28 23:33 UTC. Time now 2015-May-29 00:09 UTC.
Position N 57°26' E 011°24'.

Type: Passenger vessel. MMSI: 308516000.

Date/timePositionNaut miles runAvg speedWind from/ knotsBaromVisibWave heightAir tempDewpointWater temp
2015-May-28 23:33N 57°26' E 011°24'2019.9
2015-May-28 22:33N 57°43' E 011°04'2020.0
2015-May-28 21:33N 58°02' E 010°56'2019.9
2015-May-28 20:33N 58°21' E 010°43'2019.8
2015-May-28 19:33N 58°40' E 010°36'1919.4
2015-May-28 18:33N 58°60' E 010°37'1413.8
2015-May-28 17:33N 59°14' E 010°37'1919.1
2015-May-28 16:33N 59°33' E 010°37'22 2.4
2015-May-28 07:24N 59°54' E 010°43'1211.6
2015-May-28 06:23N 59°43' E 010°35'1113.6
2015-May-28 05:33N 59°32' E 010°36'1818.1
2015-May-28 04:34N 59°14' E 010°38'1514.7
2015-May-28 03:33N 58°59' E 010°31'1616.2
2015-May-28 02:33N 58°47' E 010°12'2017.4
2015-May-28 01:24N 58°32' E 009°46'1416.7
2015-May-28 00:33N 58°21' E 009°29'2316.5
2015-May-27 23:09N 58°03' E 009°00'10017.9
2015-May-27 17:32N 58°03' E 005°51'2320.9
2015-May-27 16:26N 58°18' E 005°16'1920.1
2015-May-27 15:29N 58°37' E 005°13'1819.0
2015-May-27 14:33N 58°52' E 005°30'1110.6
2015-May-27 13:33N 59°02' E 005°38'4 4.2
2015-May-27 12:31N 58°58' E 005°44'0 0.0
2015-May-27 11:31N 58°58' E 005°44'0 0.0
2015-May-27 10:31N 58°58' E 005°44'0 0.0
2015-May-27 09:31N 58°58' E 005°44'0 0.0
2015-May-27 08:31N 58°58' E 005°44'0 0.0
2015-May-27 07:31N 58°58' E 005°44'0 0.0
2015-May-27 06:31N 58°58' E 005°44'0 0.0
2015-May-27 05:31N 58°58' E 005°44'2 1.8
2015-May-27 04:33N 58°60' E 005°41'1010.3
2015-May-27 03:33N 59°07' E 005°26'1515.0
2015-May-27 02:33N 58°60' E 005°00'26116.3
2015-May-26 10:33N 59°29' W 003°27'1817.9
2015-May-26 09:33N 59°27' W 004°02'  
2015-May-21 22:00N 41°36' W 052°00'2323.2 320 / 101017.3 5.4 1.516.010.812.0
2015-May-21 21:00N 41°42' W 052°30'   300 / 131016.3 5.4 17.010.011.0
2015-May-19 15:05N 41°01' W 067°58'916.5
2015-May-19 14:33N 40°56' W 068°07'1817.9
2015-May-19 13:33N 40°45' W 068°26'1817.3
2015-May-19 12:29N 40°34' W 068°45'1516.4
2015-May-19 11:33N 40°26' W 069°02'1616.0
2015-May-19 10:33N 40°26' W 069°23'1616.2
2015-May-19 09:33N 40°25' W 069°45'1616.5
2015-May-19 08:33N 40°25' W 070°06'1716.6
2015-May-19 07:33N 40°25' W 070°28'1716.7
2015-May-19 06:33N 40°24' W 070°50'1717.0
2015-May-19 05:33N 40°24' W 071°12'1717.1
2015-May-19 04:33N 40°23' W 071°35'1717.3
2015-May-19 03:33N 40°22' W 071°57'2020.0
2015-May-19 02:33N 40°22' W 072°24'2019.8
2015-May-19 01:33N 40°22' W 072°50'2020.1
2015-May-19 00:33N 40°23' W 073°16'1919.5
2015-May-18 23:33N 40°26' W 073°41'  
Track history (hours):
 
Tides and Currents Weather Stations Pressure Air Temp Water Temp Dewpoint Dewpoint Depression Visibility Wind Speed Wind Dir Waves Ship Positions

Disney Magic

Last reported at 2015-May-28 23:33 UTC. Time now 2015-May-29 00:09 UTC.
Position N 57°26' E 011°24'.

Type: Passenger vessel. MMSI: 308516000.

Date/timePositionNaut miles runAvg speedWind from/ knotsBaromVisibWave heightAir tempDewpointWater temp
2015-May-28 23:33N 57°26' E 011°24'2019.9
2015-May-28 22:33N 57°43' E 011°04'2020.0
2015-May-28 21:33N 58°02' E 010°56'2019.9
2015-May-28 20:33N 58°21' E 010°43'2019.8
2015-May-28 19:33N 58°40' E 010°36'1919.4
2015-May-28 18:33N 58°60' E 010°37'1413.8
2015-May-28 17:33N 59°14' E 010°37'1919.1
2015-May-28 16:33N 59°33' E 010°37'22 2.4
2015-May-28 07:24N 59°54' E 010°43'1211.6
2015-May-28 06:23N 59°43' E 010°35'1113.6
2015-May-28 05:33N 59°32' E 010°36'1818.1
2015-May-28 04:34N 59°14' E 010°38'1514.7
2015-May-28 03:33N 58°59' E 010°31'1616.2
2015-May-28 02:33N 58°47' E 010°12'2017.4
2015-May-28 01:24N 58°32' E 009°46'1416.7
2015-May-28 00:33N 58°21' E 009°29'2316.5
2015-May-27 23:09N 58°03' E 009°00'10017.9
2015-May-27 17:32N 58°03' E 005°51'2320.9
2015-May-27 16:26N 58°18' E 005°16'1920.1
2015-May-27 15:29N 58°37' E 005°13'1819.0
2015-May-27 14:33N 58°52' E 005°30'1110.6
2015-May-27 13:33N 59°02' E 005°38'4 4.2
2015-May-27 12:31N 58°58' E 005°44'0 0.0
2015-May-27 11:31N 58°58' E 005°44'0 0.0
2015-May-27 10:31N 58°58' E 005°44'0 0.0
2015-May-27 09:31N 58°58' E 005°44'0 0.0
2015-May-27 08:31N 58°58' E 005°44'0 0.0
2015-May-27 07:31N 58°58' E 005°44'0 0.0
2015-May-27 06:31N 58°58' E 005°44'0 0.0
2015-May-27 05:31N 58°58' E 005°44'2 1.8
2015-May-27 04:33N 58°60' E 005°41'1010.3
2015-May-27 03:33N 59°07' E 005°26'1515.0
2015-May-27 02:33N 58°60' E 005°00'26116.3
2015-May-26 10:33N 59°29' W 003°27'1817.9
2015-May-26 09:33N 59°27' W 004°02'  
2015-May-21 22:00N 41°36' W 052°00'2323.2 320 / 101017.3 5.4 1.516.010.812.0
2015-May-21 21:00N 41°42' W 052°30'   300 / 131016.3 5.4 17.010.011.0
2015-May-19 15:05N 41°01' W 067°58'916.5
2015-May-19 14:33N 40°56' W 068°07'1817.9
2015-May-19 13:33N 40°45' W 068°26'1817.3
2015-May-19 12:29N 40°34' W 068°45'1516.4
2015-May-19 11:33N 40°26' W 069°02'1616.0
2015-May-19 10:33N 40°26' W 069°23'1616.2
2015-May-19 09:33N 40°25' W 069°45'1616.5
2015-May-19 08:33N 40°25' W 070°06'1716.6
2015-May-19 07:33N 40°25' W 070°28'1716.7
2015-May-19 06:33N 40°24' W 070°50'1717.0
2015-May-19 05:33N 40°24' W 071°12'1717.1
2015-May-19 04:33N 40°23' W 071°35'1717.3
2015-May-19 03:33N 40°22' W 071°57'2020.0
2015-May-19 02:33N 40°22' W 072°24'2019.8
2015-May-19 01:33N 40°22' W 072°50'2020.1
2015-May-19 00:33N 40°23' W 073°16'1919.5
2015-May-18 23:33N 40°26' W 073°41'  

Dump ship's entire track history